< < Back
Terminal Aerodrome Forecast


Current Version              Previous Versions:   1  2  3  4  5  6  7  8  9  

Terminal Aerodrome Forecast

249
FTUS42 KCHS 210500
TAFSAV
TAF
KSAV 210535Z 2106/2206 03008KT P6SM VCSH OVC004
      TEMPO 2108/2112 4SM -RA BR SCT003 OVC006
     FM211200 02007KT 5SM -RA BKN007 OVC012
     FM211800 02008KT 6SM -RA SCT006 OVC012
     FM220000 03005KT 3SM BR VCSH OVC005=



Latest METAR

482
SAUS80 KWBC 211100 RRB
MTRSAV
METAR KSAV 211053Z 02009KT 7SM -RA OVC006 09/08 A3019 RMK AO2 RAB24
SLP221 FIRST AUGMENTED OBSERVATION P0000 T00940078


USA.gov is the U.S. government's official web portal to all federal, state and local government web resources and services.